Time;durP1;ratioP1;P1;durP2;ratioP2;P2;SDS_P1;SDS_P2;PMS_P1;PMS_P2;Temp;Humidity;BMP_temperature;BMP_pressure;BME280_temperature;BME280_humidity;BME280_pressure;Samples;Min_cycle;Max_cycle;Signal;HPM_P1;HPM_P2
2023/03/23 05:05:14;;;;;;;1.07;1.07;;;15.10;90.80;;;;;;5415432;23;20491;-75
2023/03/23 05:07:41;;;;;;;2.20;1.10;;;15.10;90.80;;;;;;4957713;28;20407;-78
2023/03/23 05:10:10;;;;;;;1.00;1.00;;;15.10;91.00;;;;;;4957462;28;20247;-75
2023/03/23 05:12:35;;;;;;;2.10;2.00;;;15.00;91.10;;;;;;4956964;28;20488;-75
2023/03/23 05:15:01;;;;;;;1.20;1.20;;;15.00;91.10;;;;;;4956488;28;21187;-76
2023/03/23 05:17:29;;;;;;;1.30;1.20;;;15.00;91.10;;;;;;4957555;28;20863;-75
2023/03/23 05:19:56;;;;;;;1.40;1.30;;;15.00;91.50;;;;;;4956943;28;20407;-75
2023/03/23 05:22:23;;;;;;;1.27;1.17;;;14.90;91.10;;;;;;4957058;28;20773;-77
2023/03/23 05:24:51;;;;;;;1.50;1.30;;;14.90;91.20;;;;;;4956347;28;20532;-76
2023/03/23 05:27:18;;;;;;;1.30;1.10;;;14.90;91.30;;;;;;4956585;28;20426;-76
2023/03/23 05:29:45;;;;;;;1.00;1.00;;;14.90;91.30;;;;;;4956876;28;20535;-75
2023/03/23 05:32:11;;;;;;;1.00;1.00;;;14.90;91.30;;;;;;4956730;28;20455;-75
2023/03/23 05:34:37;;;;;;;1.20;1.10;;;14.90;91.30;;;;;;4955510;28;20962;-74
2023/03/23 05:37:04;;;;;;;0.90;0.90;;;15.00;91.20;;;;;;4955559;28;20446;-77
2023/03/23 05:39:32;;;;;;;1.47;1.37;;;15.00;91.00;;;;;;4956781;28;20181;-77
2023/03/23 05:41:58;;;;;;;1.27;1.17;;;15.00;91.20;;;;;;4955536;29;20475;-76
2023/03/23 05:44:23;;;;;;;1.03;1.03;;;15.00;91.00;;;;;;4957033;28;20436;-80
2023/03/23 05:46:49;;;;;;;1.00;1.00;;;15.00;91.10;;;;;;4955747;28;20432;-76
2023/03/23 05:49:16;;;;;;;1.63;1.10;;;15.10;91.20;;;;;;4956530;28;20181;-75
2023/03/23 05:51:49;;;;;;;1.23;1.23;;;15.00;91.20;;;;;;4956309;28;20235;-76
2023/03/23 05:54:15;;;;;;;1.00;1.00;;;15.00;91.90;;;;;;4955822;28;20809;-78
2023/03/23 05:56:42;;;;;;;1.30;1.20;;;15.00;91.50;;;;;;4955202;29;20909;-76
2023/03/23 05:59:10;;;;;;;1.40;1.30;;;15.00;91.50;;;;;;4956156;28;20882;-77
2023/03/23 06:01:37;;;;;;;1.67;1.30;;;15.00;91.60;;;;;;4955604;28;20405;-75
2023/03/23 06:04:02;;;;;;;2.03;1.40;;;15.00;91.70;;;;;;4955707;28;20439;-75
2023/03/23 06:06:30;;;;;;;1.30;1.20;;;15.00;91.80;;;;;;4955794;28;20416;-78
2023/03/23 06:08:56;;;;;;;1.90;1.00;;;15.00;91.80;;;;;;4955965;28;20255;-76
2023/03/23 06:11:23;;;;;;;1.60;1.50;;;15.00;91.70;;;;;;4955807;28;20403;-77
2023/03/23 06:13:48;;;;;;;1.63;1.53;;;15.10;91.80;;;;;;4955449;28;20451;-77
2023/03/23 06:16:14;;;;;;;1.50;1.40;;;15.00;91.60;;;;;;4955750;28;20850;-78
2023/03/23 06:18:40;;;;;;;2.77;1.50;;;15.10;91.60;;;;;;4955981;28;20453;-75
2023/03/23 06:21:07;;;;;;;1.93;1.80;;;15.10;91.70;;;;;;4955923;28;20179;-75
2023/03/23 06:23:34;;;;;;;1.40;1.30;;;15.20;91.70;;;;;;4954115;29;20177;-75
2023/03/23 06:26:05;;;;;;;1.77;1.67;;;15.20;91.80;;;;;;4954319;28;20764;-77
2023/03/23 06:28:31;;;;;;;1.90;1.80;;;15.30;91.70;;;;;;4954358;29;20452;-74
2023/03/23 06:31:04;;;;;;;2.30;1.23;;;15.30;91.80;;;;;;4955749;28;20472;-77
2023/03/23 06:33:31;;;;;;;1.60;1.50;;;15.30;91.80;;;;;;4955142;28;20420;-74
2023/03/23 06:35:58;;;;;;;1.53;1.40;;;15.30;91.60;;;;;;4955105;28;20483;-73
2023/03/23 06:38:24;;;;;;;1.30;1.20;;;15.30;91.90;;;;;;4954055;29;20460;-74
2023/03/23 06:40:52;;;;;;;1.47;1.37;;;15.30;91.90;;;;;;4954149;29;20424;-75
2023/03/23 06:43:18;;;;;;;0.90;0.90;;;15.30;91.90;;;;;;4954845;28;20823;-74
2023/03/23 06:45:43;;;;;;;1.40;1.30;;;15.30;92.00;;;;;;4955721;28;20574;-74
2023/03/23 06:48:09;;;;;;;2.10;2.00;;;15.20;91.80;;;;;;4955457;28;20187;-73
2023/03/23 06:50:34;;;;;;;2.60;1.90;;;15.20;92.00;;;;;;4955220;28;20172;-75
2023/03/23 06:53:00;;;;;;;1.60;1.50;;;15.20;92.30;;;;;;4955411;28;20267;-77
2023/03/23 06:55:26;;;;;;;1.60;1.50;;;15.20;92.30;;;;;;4955287;28;20348;-73
2023/03/23 06:57:51;;;;;;;1.67;1.57;;;15.20;93.30;;;;;;4955421;28;20512;-74
2023/03/23 07:00:17;;;;;;;1.53;1.43;;;15.20;92.70;;;;;;4954978;28;20242;-75
2023/03/23 07:02:44;;;;;;;2.03;1.93;;;15.20;92.60;;;;;;4953580;28;20611;-76
2023/03/23 07:05:11;;;;;;;1.73;1.63;;;15.30;92.50;;;;;;4954472;28;20543;-75
2023/03/23 07:07:38;;;;;;;2.77;2.10;;;15.40;92.60;;;;;;4953866;29;20425;-74
2023/03/23 07:10:05;;;;;;;3.37;1.90;;;15.50;92.50;;;;;;4953644;29;20428;-75
2023/03/23 07:12:31;;;;;;;1.63;1.27;;;15.70;92.40;;;;;;4954374;28;20453;-80
2023/03/23 07:14:57;;;;;;;1.20;1.20;;;15.90;92.60;;;;;;4958430;28;20487;-74
2023/03/23 07:17:23;;;;;;;1.73;1.50;;;16.00;92.40;;;;;;4957631;29;20642;-75
2023/03/23 07:19:48;;;;;;;2.40;1.70;;;16.10;91.80;;;;;;4958729;28;20753;-75
2023/03/23 07:22:14;;;;;;;1.73;1.63;;;16.20;91.50;;;;;;4958735;28;20420;-73
2023/03/23 07:24:40;;;;;;;2.37;1.70;;;16.20;91.60;;;;;;4958220;28;20272;-75
2023/03/23 07:27:05;;;;;;;1.67;1.57;;;16.20;91.30;;;;;;4958861;28;20180;-76
2023/03/23 07:29:34;;;;;;;3.93;3.20;;;16.20;91.70;;;;;;4958769;28;20501;-76
2023/03/23 07:32:01;;;;;;;2.10;2.00;;;16.20;91.70;;;;;;4957332;28;20212;-73
2023/03/23 07:34:27;;;;;;;4.90;4.53;;;16.10;91.40;;;;;;4958063;28;20448;-77
2023/03/23 07:36:53;;;;;;;1.77;1.67;;;16.10;91.70;;;;;;4958553;28;20387;-78
2023/03/23 07:39:19;;;;;;;5.87;3.40;;;16.10;91.70;;;;;;4957223;29;20503;-78
2023/03/23 07:41:44;;;;;;;3.30;2.87;;;16.00;91.60;;;;;;4958573;28;20212;-72
2023/03/23 07:44:10;;;;;;;2.40;2.20;;;16.00;91.70;;;;;;4957651;28;20189;-80
2023/03/23 07:46:36;;;;;;;1.87;1.77;;;16.00;91.70;;;;;;4956928;28;20627;-74
2023/03/23 07:49:05;;;;;;;2.27;2.00;;;15.90;91.90;;;;;;4958170;28;20195;-78
2023/03/23 07:51:31;;;;;;;2.20;2.10;;;15.90;92.00;;;;;;4958294;28;20412;-73
2023/03/23 07:53:57;;;;;;;2.03;1.90;;;16.00;92.10;;;;;;4957942;28;20859;-72
2023/03/23 07:56:23;;;;;;;1.60;1.50;;;16.10;92.00;;;;;;4958165;28;20491;-77
2023/03/23 07:58:49;;;;;;;2.10;1.90;;;16.10;92.10;;;;;;4957122;29;20441;-75
2023/03/23 08:01:15;;;;;;;1.90;1.80;;;16.20;92.30;;;;;;4956664;29;20204;-77
2023/03/23 08:03:41;;;;;;;1.90;1.80;;;16.40;92.40;;;;;;4957717;28;20953;-75
2023/03/23 08:06:08;;;;;;;2.03;1.83;;;16.60;92.40;;;;;;4958218;28;20426;-79
2023/03/23 08:08:34;;;;;;;4.27;2.50;;;16.80;92.20;;;;;;4958341;28;20414;-71
2023/03/23 08:11:00;;;;;;;4.63;3.03;;;17.00;91.60;;;;;;4956846;29;20399;-75
2023/03/23 08:13:25;;;;;;;2.40;1.80;;;17.30;91.20;;;;;;4957915;28;20417;-73
2023/03/23 08:15:51;;;;;;;1.43;1.33;;;17.40;90.80;;;;;;4957758;28;20693;-81
2023/03/23 08:18:17;;;;;;;2.63;1.80;;;17.50;90.60;;;;;;4958744;28;20207;-76
2023/03/23 08:20:48;;;;;;;1.43;1.33;;;17.60;90.60;;;;;;4959625;28;20516;-74
2023/03/23 08:23:14;;;;;;;1.80;1.70;;;17.70;90.60;;;;;;4958119;28;20435;-76
2023/03/23 08:25:42;;;;;;;4.07;1.90;;;17.80;90.70;;;;;;4958997;28;20468;-76
2023/03/23 08:28:09;;;;;;;3.90;1.77;;;17.90;90.50;;;;;;4958717;28;20543;-75
2023/03/23 08:30:36;;;;;;;1.77;1.67;;;18.10;90.50;;;;;;4958364;28;20471;-74
2023/03/23 08:33:02;;;;;;;1.27;1.17;;;18.10;90.30;;;;;;4958235;28;20512;-75
2023/03/23 08:35:28;;;;;;;3.47;2.70;;;18.20;90.40;;;;;;4958367;28;20553;-69
2023/03/23 08:37:54;;;;;;;4.03;3.40;;;18.30;90.70;;;;;;4957625;28;20471;-73
2023/03/23 08:40:22;;;;;;;1.57;1.47;;;18.30;90.60;;;;;;4957611;28;20405;-75
2023/03/23 08:42:50;;;;;;;2.60;1.73;;;18.30;90.40;;;;;;4957725;28;20415;-75
2023/03/23 08:45:19;;;;;;;2.20;2.00;;;18.40;90.50;;;;;;4955956;28;20460;-74
2023/03/23 08:47:46;;;;;;;2.40;2.00;;;18.20;90.50;;;;;;4955868;28;20435;-75
2023/03/23 08:50:14;;;;;;;1.73;1.63;;;18.20;91.20;;;;;;4955980;29;20519;-75
2023/03/23 08:52:41;;;;;;;2.83;1.60;;;18.20;91.10;;;;;;4957443;28;20891;-75
2023/03/23 08:55:08;;;;;;;1.83;1.73;;;18.20;91.10;;;;;;4950849;28;20860;-72
2023/03/23 08:57:35;;;;;;;1.73;1.10;;;18.10;90.90;;;;;;4957330;28;20412;-72
2023/03/23 09:00:15;;;;;;;1.90;1.80;;;18.10;91.00;;;;;;4957045;28;20416;-76
2023/03/23 09:02:42;;;;;;;2.50;2.33;;;18.00;91.30;;;;;;4957120;28;20409;-73
2023/03/23 09:05:10;;;;;;;2.03;1.90;;;17.80;91.70;;;;;;4955050;28;20470;-72
2023/03/23 09:07:36;;;;;;;1.77;1.67;;;17.70;92.00;;;;;;4955726;28;20456;-76
2023/03/23 09:10:02;;;;;;;3.27;2.63;;;17.60;91.90;;;;;;4956581;28;20486;-75
2023/03/23 09:12:29;;;;;;;3.57;3.23;;;17.50;92.30;;;;;;4955455;28;20909;-73
2023/03/23 09:14:55;;;;;;;1.40;1.30;;;17.50;92.50;;;;;;4955972;28;20548;-75
2023/03/23 09:17:20;;;;;;;1.30;1.27;;;17.40;92.60;;;;;;4956597;28;20502;-74
2023/03/23 09:19:46;;;;;;;2.13;1.93;;;17.40;92.80;;;;;;4955341;28;20667;-74
2023/03/23 09:22:12;;;;;;;4.87;4.47;;;17.40;93.20;;;;;;4956565;28;20179;-74
2023/03/23 09:24:37;;;;;;;2.43;1.80;;;17.40;93.10;;;;;;4956141;28;20554;-75
2023/03/23 09:27:04;;;;;;;1.53;1.40;;;17.50;93.20;;;;;;4957130;28;20174;-74
2023/03/23 09:29:30;;;;;;;1.80;1.70;;;17.60;92.50;;;;;;4956604;28;20227;-73
2023/03/23 09:31:55;;;;;;;1.87;1.60;;;17.60;92.90;;;;;;4956587;28;20902;-75
2023/03/23 09:34:22;;;;;;;1.50;1.37;;;17.70;93.10;;;;;;4955802;28;20208;-72
2023/03/23 09:36:48;;;;;;;1.43;1.33;;;17.80;92.70;;;;;;4955880;28;20218;-75
2023/03/23 09:39:13;;;;;;;1.50;1.40;;;17.90;92.80;;;;;;4956358;28;20807;-74
2023/03/23 09:41:53;;;;;;;1.50;1.40;;;18.10;92.70;;;;;;4956525;28;20412;-73
2023/03/23 09:44:55;;;;;;;1.70;1.60;;;18.10;92.60;;;;;;4955540;28;20256;-75
2023/03/23 09:47:36;;;;;;;1.27;1.17;;;18.10;92.60;;;;;;4956170;28;20413;-73
2023/03/23 09:50:26;;;;;;;1.60;1.50;;;18.10;92.20;;;;;;4954693;28;20416;-72
2023/03/23 09:52:57;;;;;;;1.93;1.10;;;18.00;92.20;;;;;;4955682;28;20548;-74
2023/03/23 09:55:23;;;;;;;1.00;1.00;;;18.10;92.10;;;;;;4955688;28;20457;-74
2023/03/23 09:58:02;;;;;;;1.17;1.07;;;18.10;92.10;;;;;;4955737;28;20415;-73
2023/03/23 10:00:28;;;;;;;1.33;1.07;;;18.00;91.90;;;;;;4955973;28;20176;-75
2023/03/23 10:03:02;;;;;;;1.27;1.17;;;18.00;92.10;;;;;;4955337;28;20412;-73
2023/03/23 10:05:31;;;;;;;1.57;1.47;;;17.90;91.80;;;;;;4955658;28;20483;-74
2023/03/23 10:07:56;;;;;;;4.43;1.37;;;17.90;92.40;;;;;;4954474;28;20463;-71
2023/03/23 10:10:37;;;;;;;1.10;1.00;;;17.80;92.30;;;;;;4956414;28;20423;-72
2023/03/23 10:13:18;;;;;;;1.33;1.23;;;18.00;92.40;;;;;;4955455;28;20173;-70
2023/03/23 10:15:44;;;;;;;1.53;1.33;;;18.20;92.50;;;;;;4955787;28;20554;-76
2023/03/23 10:18:21;;;;;;;1.47;1.37;;;18.40;92.20;;;;;;4955880;28;20413;-72
2023/03/23 10:20:56;;;;;;;2.27;1.83;;;18.60;92.00;;;;;;4956279;28;20770;-74
2023/03/23 10:23:41;;;;;;;1.40;1.30;;;18.60;91.80;;;;;;4955595;28;20426;-74
2023/03/23 10:26:25;;;;;;;1.10;1.00;;;18.60;92.00;;;;;;4954507;28;20859;-72
2023/03/23 10:28:58;;;;;;;1.00;1.00;;;18.70;91.90;;;;;;4955497;28;20411;-72
2023/03/23 10:31:30;;;;;;;1.00;1.00;;;18.90;91.60;;;;;;4954340;28;20491;-73
2023/03/23 10:34:01;;;;;;;1.63;1.53;;;19.10;92.00;;;;;;4955318;28;20519;-76
2023/03/23 10:36:33;;;;;;;2.53;1.17;;;19.20;91.60;;;;;;4955239;28;20459;-71
2023/03/23 10:39:03;;;;;;;1.43;1.33;;;19.30;91.60;;;;;;4955659;28;20776;-77
2023/03/23 10:41:30;;;;;;;1.37;1.30;;;19.60;91.40;;;;;;4955556;28;20443;-74
2023/03/23 10:43:56;;;;;;;1.63;1.37;;;19.90;91.50;;;;;;4955271;28;20819;-76
2023/03/23 10:47:03;;;;;;;1.17;1.10;;;20.20;91.00;;;;;;4955493;28;20381;-74
2023/03/23 10:49:38;;;;;;;1.30;1.20;;;20.40;90.50;;;;;;4934403;29;20423;-78
2023/03/23 10:52:14;;;;;;;2.20;1.00;;;20.40;89.70;;;;;;4952632;28;20417;-73
2023/03/23 10:54:51;;;;;;;1.33;1.23;;;20.50;89.40;;;;;;4953527;28;20453;-71
2023/03/23 10:57:28;;;;;;;1.30;1.20;;;20.30;89.60;;;;;;4955529;28;20412;-70
2023/03/23 11:00:01;;;;;;;2.57;1.50;;;20.10;90.30;;;;;;4955532;28;20909;-71
2023/03/23 11:02:28;;;;;;;2.30;1.50;;;19.90;90.70;;;;;;4955309;28;20488;-77
2023/03/23 11:05:01;;;;;;;1.17;1.17;;;19.80;91.50;;;;;;4954663;28;20440;-73
2023/03/23 11:07:32;;;;;;;1.53;1.43;;;19.60;91.50;;;;;;4955192;28;20409;-75
2023/03/23 11:10:16;;;;;;;1.00;1.00;;;19.60;91.70;;;;;;4955252;28;20411;-72
2023/03/23 11:12:46;;;;;;;1.87;1.77;;;19.60;91.70;;;;;;4955313;28;20398;-72
2023/03/23 11:15:34;;;;;;;1.13;1.13;;;19.70;91.60;;;;;;4954800;28;20551;-71
2023/03/23 11:18:07;;;;;;;3.50;1.60;;;19.80;91.30;;;;;;4955212;28;20488;-72
2023/03/23 11:20:44;;;;;;;1.20;1.20;;;19.80;91.50;;;;;;4954999;28;20563;-71
2023/03/23 11:23:23;;;;;;;1.60;1.40;;;19.80;91.30;;;;;;4954684;28;20401;-71
2023/03/23 11:26:20;;;;;;;1.30;1.20;;;19.80;91.40;;;;;;4954934;28;20432;-70
2023/03/23 11:28:57;;;;;;;1.73;1.37;;;19.70;91.50;;;;;;4953832;28;20814;-71
2023/03/23 11:31:29;;;;;;;1.20;1.20;;;19.60;91.80;;;;;;4954892;28;20491;-72
2023/03/23 11:34:10;;;;;;;1.33;1.23;;;19.60;91.50;;;;;;4947349;28;20943;-71
2023/03/23 11:36:40;;;;;;;1.30;1.20;;;19.60;91.70;;;;;;4934459;29;20789;-71
2023/03/23 11:39:31;;;;;;;1.23;1.23;;;19.40;92.00;;;;;;4935930;29;20401;-74
2023/03/23 11:42:11;;;;;;;1.60;1.50;;;19.30;91.70;;;;;;4935812;29;20452;-73
2023/03/23 11:44:42;;;;;;;2.10;2.00;;;19.20;91.50;;;;;;4935125;29;20787;-72
2023/03/23 11:47:10;;;;;;;2.90;2.27;;;19.20;93.00;;;;;;4935603;29;20409;-74
2023/03/23 11:50:13;;;;;;;1.60;1.50;;;19.30;92.40;;;;;;4935494;29;20438;-72
2023/03/23 11:53:10;;;;;;;1.50;1.40;;;19.40;91.30;;;;;;4935633;29;20408;-71
2023/03/23 11:56:15;;;;;;;4.13;1.90;;;19.40;91.50;;;;;;4935424;29;20435;-71
2023/03/23 11:58:40;;;;;;;1.47;1.47;;;19.40;91.90;;;;;;4936154;29;20488;-71
2023/03/23 12:01:18;;;;;;;1.70;1.63;;;19.40;91.80;;;;;;4939075;29;20926;-71
2023/03/23 12:03:51;;;;;;;1.90;1.80;;;19.50;91.50;;;;;;4938696;29;20429;-71
2023/03/23 12:06:26;;;;;;;1.60;1.50;;;19.50;91.60;;;;;;4939107;29;20429;-71
2023/03/23 12:09:00;;;;;;;2.93;1.60;;;19.60;91.50;;;;;;4938965;29;20405;-72
2023/03/23 12:11:37;;;;;;;1.70;1.60;;;19.70;91.20;;;;;;4938831;29;20514;-71
2023/03/23 12:14:26;;;;;;;1.60;1.50;;;19.70;91.50;;;;;;4938599;29;20468;-72
2023/03/23 12:17:05;;;;;;;1.70;1.60;;;19.80;91.30;;;;;;4938813;29;20413;-76
2023/03/23 12:20:14;;;;;;;1.30;1.20;;;19.80;91.30;;;;;;4945629;29;20467;-73
2023/03/23 12:23:17;;;;;;;1.77;1.57;;;19.90;91.20;;;;;;4958045;28;20914;-72
2023/03/23 12:25:55;;;;;;;1.80;1.70;;;19.90;90.30;;;;;;4956657;29;20436;-73
2023/03/23 12:28:40;;;;;;;1.90;1.80;;;19.80;90.40;;;;;;4959433;28;20419;-71
2023/03/23 12:31:24;;;;;;;1.80;1.60;;;19.80;91.10;;;;;;4958402;28;20751;-70
2023/03/23 12:33:55;;;;;;;1.80;1.70;;;19.80;90.50;;;;;;4957751;28;20758;-74
2023/03/23 12:36:58;;;;;;;1.40;1.30;;;19.70;90.40;;;;;;4958083;28;20821;-73
2023/03/23 12:39:43;;;;;;;1.70;1.60;;;19.60;90.60;;;;;;4956356;28;20849;-73
2023/03/23 12:42:28;;;;;;;2.33;1.80;;;19.50;90.20;;;;;;4957718;28;20412;-73
2023/03/23 12:45:08;;;;;;;3.07;1.83;;;19.50;90.20;;;;;;4957325;28;20424;-73
2023/03/23 12:47:44;;;;;;;1.70;1.60;;;19.40;90.00;;;;;;4957540;28;20420;-74
2023/03/23 12:50:18;;;;;;;1.20;1.20;;;19.40;90.20;;;;;;4957494;28;20405;-70
2023/03/23 12:52:51;;;;;;;1.37;1.27;;;19.50;90.70;;;;;;4957616;28;21298;-71
2023/03/23 12:55:41;;;;;;;1.17;1.17;;;19.50;90.40;;;;;;4957405;28;20463;-74
2023/03/23 12:58:31;;;;;;;1.50;1.50;;;19.60;89.40;;;;;;4957406;28;20440;-70
2023/03/23 13:01:12;;;;;;;1.43;1.33;;;19.50;89.40;;;;;;4957202;28;20428;-72
2023/03/23 13:03:46;;;;;;;1.20;1.17;;;19.60;89.30;;;;;;4956903;28;20397;-72
2023/03/23 13:06:24;;;;;;;1.90;1.67;;;19.60;89.90;;;;;;4957125;28;20775;-72
2023/03/23 13:09:01;;;;;;;1.67;1.57;;;19.70;90.00;;;;;;4957498;28;20432;-71
2023/03/23 13:11:42;;;;;;;1.80;1.70;;;19.80;89.80;;;;;;4956023;28;20465;-71
2023/03/23 13:14:40;;;;;;;2.83;1.83;;;19.80;88.60;;;;;;4956608;28;20870;-73
2023/03/23 13:17:22;;;;;;;1.67;1.57;;;19.80;91.90;;;;;;4957125;28;20412;-73
2023/03/23 13:19:59;;;;;;;1.70;1.60;;;19.40;93.20;;;;;;4955561;28;20420;-70
2023/03/23 13:22:36;;;;;;;1.43;1.33;;;19.20;94.00;;;;;;4956787;28;20385;-73
2023/03/23 13:25:11;;;;;;;3.87;1.27;;;19.00;94.40;;;;;;4956524;28;20471;-72
2023/03/23 13:27:37;;;;;;;4.37;2.00;;;18.90;94.50;;;;;;4955602;28;20419;-71
2023/03/23 13:30:04;;;;;;;1.73;1.63;;;18.70;94.80;;;;;;4956608;28;20497;-72
2023/03/23 13:32:38;;;;;;;1.73;1.60;;;18.50;95.20;;;;;;4956508;28;20173;-73
2023/03/23 13:35:11;;;;;;;4.80;1.93;;;18.40;95.50;;;;;;4956138;28;20454;-73
2023/03/23 13:37:45;;;;;;;1.90;1.80;;;18.20;96.50;;;;;;4955261;29;20479;-74
2023/03/23 13:40:11;;;;;;;4.63;1.70;;;18.10;96.00;;;;;;4955173;28;20459;-75
2023/03/23 13:42:51;;;;;;;1.90;1.80;;;18.10;96.20;;;;;;4956393;28;20420;-75
2023/03/23 13:45:30;;;;;;;2.40;1.93;;;18.10;96.30;;;;;;4956309;28;20459;-75
2023/03/23 13:48:16;;;;;;;1.70;1.60;;;18.00;96.50;;;;;;4955224;28;20451;-75
2023/03/23 13:50:57;;;;;;;2.00;1.90;;;18.00;96.40;;;;;;4956507;28;20408;-75
2023/03/23 13:53:34;;;;;;;1.73;1.63;;;18.00;96.20;;;;;;4956208;28;20404;-74
2023/03/23 13:56:22;;;;;;;1.83;1.33;;;17.80;96.10;;;;;;4954666;28;20486;-76
2023/03/23 13:58:56;;;;;;;2.47;1.80;;;17.70;96.40;;;;;;4956334;28;20403;-75
2023/03/23 14:01:35;;;;;;;1.67;1.57;;;17.60;96.80;;;;;;4956210;28;20436;-75
2023/03/23 14:04:02;;;;;;;1.53;1.43;;;17.50;96.70;;;;;;4955992;28;20465;-75
2023/03/23 14:06:35;;;;;;;1.60;1.50;;;17.50;97.00;;;;;;4955950;28;20406;-75
2023/03/23 14:09:14;;;;;;;2.00;1.90;;;17.40;97.80;;;;;;4955999;28;20705;-75
2023/03/23 14:11:55;;;;;;;1.80;1.70;;;17.30;98.00;;;;;;4953144;28;20441;-74
2023/03/23 14:14:28;;;;;;;2.40;2.20;;;17.20;97.90;;;;;;4952032;28;20787;-75
2023/03/23 14:17:27;;;;;;;2.33;2.13;;;17.10;98.30;;;;;;4956018;28;20401;-75
2023/03/23 14:19:57;;;;;;;2.63;2.37;;;17.00;98.50;;;;;;4951592;28;20511;-75
2023/03/23 14:22:31;;;;;;;2.30;2.10;;;17.00;98.40;;;;;;4954902;28;20453;-75
2023/03/23 14:25:08;;;;;;;3.00;1.60;;;17.00;98.70;;;;;;4955081;29;20790;-75
2023/03/23 14:27:34;;;;;;;2.77;2.20;;;17.00;98.60;;;;;;4955083;28;20499;-75
2023/03/23 14:30:03;;;;;;;3.37;1.63;;;17.00;98.40;;;;;;4944588;28;20432;-76
2023/03/23 14:32:32;;;;;;;2.10;1.90;;;17.10;98.50;;;;;;4953069;28;20173;-75
2023/03/23 14:34:59;;;;;;;1.97;1.60;;;17.10;98.40;;;;;;4952223;29;20876;-75
2023/03/23 14:37:26;;;;;;;1.73;1.63;;;17.20;98.30;;;;;;4951977;29;20449;-75
2023/03/23 14:39:54;;;;;;;2.13;1.93;;;17.30;98.20;;;;;;4949623;29;20421;-74
2023/03/23 14:42:27;;;;;;;2.87;1.63;;;17.30;98.10;;;;;;4953694;28;20420;-76
2023/03/23 14:44:53;;;;;;;2.10;2.00;;;17.40;97.90;;;;;;4953671;28;21028;-75
2023/03/23 14:47:23;;;;;;;1.83;1.67;;;17.50;97.70;;;;;;4955282;28;20500;-75
2023/03/23 14:49:54;;;;;;;1.77;1.67;;;17.50;97.60;;;;;;4954372;29;20179;-74
2023/03/23 14:52:22;;;;;;;2.23;2.03;;;17.50;97.20;;;;;;4954630;28;20437;-74
2023/03/23 14:54:48;;;;;;;2.07;1.90;;;17.60;97.40;;;;;;4953602;28;20461;-75
2023/03/23 14:57:19;;;;;;;1.80;1.70;;;17.70;97.40;;;;;;4955040;28;20421;-76
2023/03/23 14:59:48;;;;;;;1.87;1.77;;;17.70;97.10;;;;;;4954774;28;20276;-74
2023/03/23 15:02:34;;;;;;;1.50;1.40;;;17.70;95.20;;;;;;4954174;28;20930;-76
2023/03/23 15:05:16;;;;;;;1.93;1.40;;;17.80;93.30;;;;;;4954740;28;20469;-74
2023/03/23 15:07:45;;;;;;;2.30;1.70;;;17.80;92.50;;;;;;4955858;28;20407;-78
2023/03/23 15:10:17;;;;;;;2.60;1.30;;;17.90;91.80;;;;;;4955732;28;20412;-75
2023/03/23 15:12:48;;;;;;;2.57;2.37;;;18.00;91.20;;;;;;4954190;28;20413;-76
2023/03/23 15:15:25;;;;;;;2.77;2.30;;;18.00;91.30;;;;;;4955169;28;20447;-75
2023/03/23 15:17:50;;;;;;;3.00;1.70;;;18.00;91.10;;;;;;4955411;28;20407;-76
2023/03/23 15:20:27;;;;;;;1.70;1.60;;;18.10;91.20;;;;;;4955388;28;20910;-75
2023/03/23 15:22:54;;;;;;;1.73;1.63;;;18.10;91.10;;;;;;4955110;28;20248;-74
2023/03/23 15:25:28;;;;;;;1.93;1.83;;;18.10;90.80;;;;;;4954960;28;20946;-75
2023/03/23 15:28:03;;;;;;;1.87;1.47;;;18.10;90.60;;;;;;4953955;29;20429;-74
2023/03/23 15:30:32;;;;;;;1.67;1.57;;;18.20;90.70;;;;;;4955102;28;20411;-75
2023/03/23 15:33:10;;;;;;;2.30;2.00;;;18.20;90.30;;;;;;4954849;28;20751;-77
2023/03/23 15:35:38;;;;;;;1.90;1.73;;;18.20;90.30;;;;;;4958954;28;20510;-76
2023/03/23 15:38:09;;;;;;;2.07;1.87;;;18.20;90.10;;;;;;4959185;28;20452;-74
2023/03/23 15:40:38;;;;;;;1.90;1.80;;;18.20;90.30;;;;;;4958941;28;20409;-75
2023/03/23 15:43:19;;;;;;;4.30;1.40;;;18.10;89.80;;;;;;4958664;28;20538;-74
2023/03/23 15:46:03;;;;;;;2.00;1.90;;;18.10;89.60;;;;;;4958787;28;20423;-75
2023/03/23 15:48:31;;;;;;;1.80;1.60;;;18.00;90.00;;;;;;4958765;28;20518;-76
2023/03/23 15:50:57;;;;;;;2.00;1.70;;;18.00;89.70;;;;;;4958582;28;20882;-76
2023/03/23 15:53:23;;;;;;;2.60;2.40;;;18.00;89.80;;;;;;4958353;28;20447;-74
2023/03/23 15:55:49;;;;;;;1.77;1.67;;;18.00;89.20;;;;;;4958826;28;20985;-77
2023/03/23 15:58:14;;;;;;;1.90;1.80;;;17.90;88.80;;;;;;4958301;28;20181;-76
2023/03/23 16:00:42;;;;;;;3.17;2.70;;;17.90;88.80;;;;;;4958371;28;20172;-76
2023/03/23 16:03:13;;;;;;;2.40;1.77;;;17.90;88.70;;;;;;4958275;28;20220;-75
2023/03/23 16:05:39;;;;;;;1.60;1.50;;;17.90;88.20;;;;;;4958231;28;20822;-74
2023/03/23 16:08:05;;;;;;;1.80;1.70;;;17.90;88.50;;;;;;4958207;28;20408;-74
2023/03/23 16:10:30;;;;;;;1.53;1.40;;;17.90;89.10;;;;;;4958288;28;20179;-76
2023/03/23 16:12:57;;;;;;;1.33;1.33;;;17.90;88.70;;;;;;4957985;28;20740;-78
2023/03/23 16:15:23;;;;;;;1.23;1.13;;;17.80;88.80;;;;;;4957983;28;20598;-76
2023/03/23 16:17:48;;;;;;;1.33;1.23;;;17.80;88.90;;;;;;4958279;28;20456;-79
2023/03/23 16:20:18;;;;;;;1.73;1.63;;;17.80;89.00;;;;;;4957883;28;20180;-76
2023/03/23 16:22:44;;;;;;;1.50;1.40;;;17.80;88.60;;;;;;4958256;28;20256;-76
2023/03/23 16:25:11;;;;;;;1.80;1.70;;;17.70;89.60;;;;;;4957628;28;20561;-76
2023/03/23 16:27:38;;;;;;;1.60;1.50;;;17.60;89.90;;;;;;4956522;28;20707;-75
2023/03/23 16:30:20;;;;;;;2.40;1.87;;;17.60;90.10;;;;;;4957915;28;20955;-77
2023/03/23 16:32:46;;;;;;;5.73;2.90;;;17.50;90.10;;;;;;4957268;28;20410;-75
2023/03/23 16:35:12;;;;;;;3.23;2.87;;;17.50;90.20;;;;;;4957472;28;20519;-76
2023/03/23 16:37:38;;;;;;;2.17;1.93;;;17.50;90.00;;;;;;4957559;28;20446;-79
2023/03/23 16:40:05;;;;;;;2.10;2.00;;;17.50;90.20;;;;;;4956532;28;21038;-66
2023/03/23 16:42:31;;;;;;;2.00;1.90;;;17.40;90.20;;;;;;4957817;28;20924;-66
2023/03/23 16:44:57;;;;;;;2.07;1.63;;;17.40;90.60;;;;;;4956962;28;20434;-69
2023/03/23 16:47:24;;;;;;;2.33;1.90;;;17.40;90.20;;;;;;4957483;29;20769;-76
2023/03/23 16:49:51;;;;;;;3.00;2.47;;;17.30;90.60;;;;;;4957580;28;20171;-77
2023/03/23 16:52:17;;;;;;;1.73;1.63;;;17.30;90.40;;;;;;4956269;29;20457;-78
2023/03/23 16:54:43;;;;;;;2.17;2.07;;;17.30;90.60;;;;;;4957116;28;20905;-77
2023/03/23 16:57:09;;;;;;;1.63;1.47;;;17.30;90.70;;;;;;4957247;28;20517;-77
2023/03/23 16:59:35;;;;;;;2.90;1.80;;;17.20;90.30;;;;;;4956749;28;20187;-75
2023/03/23 17:02:02;;;;;;;1.73;1.63;;;17.20;90.60;;;;;;4938005;29;20428;-77
2023/03/23 17:04:32;;;;;;;1.33;1.20;;;17.20;90.50;;;;;;4937528;29;20522;-76
2023/03/23 17:06:58;;;;;;;2.53;1.57;;;17.20;90.80;;;;;;4938124;29;20956;-79
2023/03/23 17:09:25;;;;;;;2.70;1.30;;;17.20;90.70;;;;;;4937908;29;20765;-73
2023/03/23 17:11:51;;;;;;;2.50;2.30;;;17.10;90.50;;;;;;4937889;29;20408;-75
2023/03/23 17:14:17;;;;;;;1.70;1.60;;;17.10;90.80;;;;;;4937536;29;20805;-75
2023/03/23 17:16:42;;;;;;;1.60;1.50;;;17.10;90.90;;;;;;4937810;29;20464;-76
2023/03/23 17:19:08;;;;;;;3.50;2.10;;;17.10;90.90;;;;;;4937410;29;20585;-74
2023/03/23 17:21:35;;;;;;;1.67;1.57;;;17.00;91.10;;;;;;4937377;29;20178;-74
2023/03/23 17:24:01;;;;;;;3.03;2.20;;;17.00;91.20;;;;;;4937017;29;20640;-74
2023/03/23 17:26:27;;;;;;;6.47;2.70;;;17.00;91.40;;;;;;4937645;29;20434;-76
2023/03/23 17:28:53;;;;;;;4.47;2.83;;;17.00;91.60;;;;;;4937458;29;20639;-80
2023/03/23 17:31:18;;;;;;;6.13;5.50;;;17.00;91.70;;;;;;4941549;29;20266;-77
2023/03/23 17:33:44;;;;;;;3.20;2.90;;;16.90;91.50;;;;;;4958320;28;20173;-76
2023/03/23 17:36:09;;;;;;;4.57;2.67;;;16.90;91.50;;;;;;4942515;28;20631;-77
2023/03/23 17:38:35;;;;;;;5.60;3.63;;;16.90;91.70;;;;;;4937433;29;20573;-77
2023/03/23 17:41:04;;;;;;;2.20;2.10;;;16.90;91.90;;;;;;4940905;29;20178;-76
2023/03/23 17:43:30;;;;;;;1.37;1.20;;;16.80;91.90;;;;;;4942891;29;20190;-78
2023/03/23 17:45:56;;;;;;;1.30;1.20;;;16.80;91.70;;;;;;4937368;29;21000;-76
2023/03/23 17:48:21;;;;;;;1.63;1.53;;;16.80;91.80;;;;;;4936159;29;20464;-77
2023/03/23 17:50:48;;;;;;;1.40;1.30;;;16.70;91.90;;;;;;4937155;29;20175;-76
2023/03/23 17:53:14;;;;;;;1.83;1.73;;;16.70;92.00;;;;;;4936662;29;20186;-76
2023/03/23 17:55:41;;;;;;;2.10;1.90;;;16.70;92.20;;;;;;4936421;29;20470;-74
2023/03/23 17:58:08;;;;;;;2.00;1.17;;;16.70;92.40;;;;;;4936522;29;20788;-74
2023/03/23 18:00:34;;;;;;;1.97;1.87;;;16.70;92.50;;;;;;4936966;29;20417;-74
2023/03/23 18:03:00;;;;;;;1.63;1.50;;;16.60;92.50;;;;;;4936841;29;20425;-71
2023/03/23 18:05:26;;;;;;;1.70;1.60;;;16.60;92.80;;;;;;4936732;29;20815;-73
2023/03/23 18:07:52;;;;;;;3.03;2.00;;;16.60;92.50;;;;;;4935749;29;20186;-71
2023/03/23 18:10:19;;;;;;;1.90;1.77;;;16.60;92.40;;;;;;4935447;29;20490;-73
2023/03/23 18:12:47;;;;;;;1.90;1.80;;;16.60;92.80;;;;;;4936739;29;20465;-72